Time;durP1;ratioP1;P1;durP2;ratioP2;P2;SDS_P1;SDS_P2;PMS_P1;PMS_P2;Temp;Humidity;BMP_temperature;BMP_pressure;BME280_temperature;BME280_humidity;BME280_pressure;Samples;Min_cycle;Max_cycle;Signal;HPM_P1;HPM_P2
2021/04/02 00:00:47;;;;;;;1.93;0.90;;;;;;;6.18;56.72;101702.28;6261314;28;20196;-73
2021/04/02 00:03:54;;;;;;;1.30;1.20;;;;;;;5.96;56.97;101705.63;6261475;28;20533;-72
2021/04/02 00:06:57;;;;;;;;;;;;;;;6.17;57.29;101705.16;6212790;28;20069;-73
2021/04/02 00:10:23;;;;;;;;;;;;;;;6.17;56.03;101703.28;6212793;28;19922;-72
2021/04/02 00:13:27;;;;;;;;;;;;;;;6.07;56.10;101689.06;6212648;28;20125;-72
2021/04/02 00:16:31;;;;;;;;;;;;;;;6.04;57.91;101700.22;6214057;28;19917;-73
2021/04/02 00:19:33;;;;;;;;;;;;;;;5.87;57.61;101695.78;6212685;28;20152;-72
2021/04/02 00:22:36;;;;;;;2.00;1.07;;;;;;;6.08;58.23;101684.50;6213405;28;20206;-71
2021/04/02 00:25:41;;;;;;;1.00;1.00;;;;;;;6.01;58.02;101683.47;6213142;28;20189;-72
2021/04/02 00:28:45;;;;;;;;;;;;;;;6.10;56.87;101677.03;6217999;28;20232;-73
2021/04/02 00:31:48;;;;;;;;;;;;;;;5.92;56.42;101674.47;6217176;28;20066;-72
2021/04/02 00:34:51;;;;;;;1.60;0.90;;;;;;;6.03;56.18;101649.78;6216667;28;20398;-73
2021/04/02 00:37:54;;;;;;;2.00;0.83;;;;;;;6.00;55.82;101650.13;6217834;28;20189;-72
2021/04/02 00:41:02;;;;;;;2.60;0.90;;;;;;;6.04;55.65;101650.59;6217918;28;20192;-72
2021/04/02 00:44:08;;;;;;;0.80;0.80;;;;;;;5.83;57.50;101653.75;6216422;28;20469;-71
2021/04/02 00:47:11;;;;;;;0.90;0.90;;;;;;;5.72;57.13;101659.50;6217628;28;20196;-72
2021/04/02 00:50:17;;;;;;;2.00;0.83;;;;;;;5.58;57.34;101628.50;6216271;28;20272;-72
2021/04/02 00:53:23;;;;;;;0.70;0.70;;;;;;;5.88;56.22;101623.53;6215709;28;20359;-73
2021/04/02 00:56:27;;;;;;;0.90;0.90;;;;;;;5.92;56.47;101641.97;6217248;28;20225;-72
2021/04/02 00:59:31;;;;;;;0.70;0.70;;;;;;;5.94;57.32;101639.94;6247594;28;20209;-72
2021/04/02 01:02:35;;;;;;;1.80;0.87;;;;;;;5.69;56.78;101613.81;6217171;28;20266;-73
2021/04/02 01:05:41;;;;;;;0.90;0.80;;;;;;;6.07;56.19;101643.00;6243994;28;20534;-72
2021/04/02 01:08:44;;;;;;;2.47;1.23;;;;;;;5.97;56.93;101634.19;6266134;28;20258;-72
2021/04/02 01:11:49;;;;;;;1.10;0.70;;;;;;;5.98;57.05;101629.63;6280328;28;20227;-72
2021/04/02 01:14:52;;;;;;;1.50;0.83;;;;;;;5.99;57.12;101626.75;6264702;28;20189;-72
2021/04/02 01:18:01;;;;;;;1.50;0.90;;;;;;;6.18;56.35;101626.41;6263174;28;20495;-72
2021/04/02 01:21:14;;;;;;;0.83;0.83;;;;;;;6.20;56.42;101612.69;6248395;28;20287;-72
2021/04/02 01:24:52;;;;;;;1.73;0.90;;;;;;;6.07;57.41;101612.34;6264527;28;20209;-73
2021/04/02 01:28:08;;;;;;;0.80;0.80;;;;;;;5.97;57.81;101611.66;6246759;28;20203;-72
2021/04/02 01:31:13;;;;;;;0.90;0.90;;;;;;;6.01;58.21;101603.03;6265294;28;20213;-72
2021/04/02 01:34:20;;;;;;;0.90;0.90;;;;;;;5.91;57.90;101607.78;6246748;28;20208;-72
2021/04/02 01:37:28;;;;;;;0.90;0.90;;;;;;;5.92;58.41;101604.06;6263831;28;20384;-72
2021/04/02 01:40:35;;;;;;;1.03;0.70;;;;;;;5.82;57.65;101551.88;6246861;28;20454;-72
2021/04/02 01:43:43;;;;;;;1.23;0.97;;;;;;;6.22;57.58;101599.81;6246381;28;20227;-71
2021/04/02 01:46:48;;;;;;;0.80;0.80;;;;;;;5.96;57.50;101583.72;6264906;28;20191;-73
2021/04/02 01:49:54;;;;;;;0.60;0.60;;;;;;;5.81;58.90;101589.94;6279089;28;20239;-73
2021/04/02 01:53:01;;;;;;;1.00;0.83;;;;;;;5.74;58.56;101584.38;6247213;28;20211;-72
2021/04/02 01:56:07;;;;;;;0.90;0.90;;;;;;;5.85;59.14;101581.38;6263242;28;20446;-72
2021/04/02 01:59:13;;;;;;;1.17;1.00;;;;;;;5.98;58.75;101581.72;6264539;28;20195;-72
2021/04/02 02:02:24;;;;;;;0.80;0.80;;;;;;;5.94;58.60;101577.66;6246500;28;20247;-73
2021/04/02 02:05:30;;;;;;;0.97;0.97;;;;;;;6.02;58.45;101572.22;6264161;28;20264;-72
2021/04/02 02:08:40;;;;;;;2.07;0.97;;;;;;;6.11;58.42;101565.78;6264759;28;20211;-72
2021/04/02 02:11:50;;;;;;;0.80;0.80;;;;;;;6.08;58.37;101566.16;6246143;28;20266;-72
2021/04/02 02:15:02;;;;;;;0.90;0.90;;;;;;;6.22;58.10;101562.72;6262367;28;20228;-72
2021/04/02 02:18:23;;;;;;;2.37;0.70;;;;;;;6.03;58.16;101533.31;6248010;28;20195;-72
2021/04/02 02:21:29;;;;;;;2.23;0.80;;;;;;;6.01;59.37;101548.84;6262730;28;20208;-71
2021/04/02 02:24:37;;;;;;;0.90;0.90;;;;;;;5.94;58.51;101515.34;6245848;28;20204;-71
2021/04/02 02:27:42;;;;;;;0.80;0.80;;;;;;;6.03;59.15;101541.44;6261598;28;20210;-73
2021/04/02 02:30:46;;;;;;;0.80;0.80;;;;;;;5.82;58.87;101530.22;6245387;28;20548;-72
2021/04/02 02:34:11;;;;;;;0.90;0.90;;;;;;;6.09;58.42;101551.56;6262027;28;20448;-73
2021/04/02 02:37:22;;;;;;;0.80;0.80;;;;;;;6.13;58.14;101541.25;6245881;28;20207;-72
2021/04/02 02:40:32;;;;;;;0.70;0.70;;;;;;;5.93;58.84;101532.59;6245530;28;20271;-72
2021/04/02 02:43:38;;;;;;;0.80;0.80;;;;;;;6.08;58.04;101530.94;6246081;28;20211;-72
2021/04/02 02:46:43;;;;;;;4.40;1.03;;;;;;;6.19;57.39;101530.53;6263546;28;20259;-73
2021/04/02 02:49:50;;;;;;;0.90;0.90;;;;;;;6.24;57.31;101527.31;6263470;28;20195;-72
2021/04/02 02:52:54;;;;;;;0.80;0.80;;;;;;;6.20;57.06;101516.00;6262350;28;20467;-71
2021/04/02 02:56:01;;;;;;;1.00;0.80;;;;;;;5.99;57.33;101512.13;6244703;28;20235;-72
2021/04/02 02:59:14;;;;;;;0.70;0.70;;;;;;;5.83;57.45;101518.34;6261878;28;20203;-72
2021/04/02 03:02:20;;;;;;;0.80;0.80;;;;;;;5.88;56.79;101515.19;6245642;28;20204;-73
2021/04/02 03:05:27;;;;;;;0.90;0.90;;;;;;;6.18;56.75;101507.19;6236759;28;20523;-72
2021/04/02 03:08:35;;;;;;;0.90;0.90;;;;;;;6.16;56.75;101492.97;6237565;28;20236;-73
2021/04/02 03:11:42;;;;;;;0.83;0.83;;;;;;;6.12;56.31;101501.59;6253653;28;20224;-72
2021/04/02 03:14:46;;;;;;;4.80;0.90;;;;;;;6.07;55.87;101499.41;6237211;28;20204;-72
2021/04/02 03:17:52;;;;;;;0.70;0.70;;;;;;;6.20;55.49;101488.91;6236621;28;20205;-72
2021/04/02 03:20:58;;;;;;;1.60;0.93;;;;;;;6.17;55.27;101483.81;6238620;28;20260;-73
2021/04/02 03:24:05;;;;;;;0.97;0.77;;;;;;;6.22;55.16;101488.72;6253242;28;20212;-72
2021/04/02 03:27:12;;;;;;;0.80;0.80;;;;;;;6.25;55.34;101478.38;6236701;28;20388;-72
2021/04/02 03:30:18;;;;;;;1.80;0.87;;;;;;;5.90;55.31;101424.63;6237148;28;20213;-72
2021/04/02 03:33:24;;;;;;;2.23;0.80;;;;;;;5.91;55.77;101477.75;6236989;28;20235;-71
2021/04/02 03:36:42;;;;;;;0.90;0.90;;;;;;;6.00;56.37;101476.75;6252337;28;20209;-72
2021/04/02 03:39:51;;;;;;;0.83;0.83;;;;;;;6.07;56.09;101466.91;6236792;28;20247;-72
2021/04/02 03:43:00;;;;;;;0.80;0.80;;;;;;;6.17;55.10;101472.13;6235906;28;20482;-72
2021/04/02 03:46:06;;;;;;;1.00;1.00;;;;;;;6.19;55.96;101464.66;6236868;28;20297;-72
2021/04/02 03:49:14;;;;;;;2.30;1.07;;;;;;;6.21;55.89;101463.47;6236920;28;20251;-71
2021/04/02 03:52:30;;;;;;;0.83;0.83;;;;;;;6.36;55.68;101454.63;6236997;28;20231;-72
2021/04/02 03:55:35;;;;;;;0.70;0.70;;;;;;;6.18;56.50;101457.56;6235916;28;20262;-73
2021/04/02 03:58:42;;;;;;;1.37;0.90;;;;;;;6.09;56.11;101453.19;6236189;28;20204;-72
2021/04/02 04:01:54;;;;;;;0.80;0.80;;;;;;;6.21;56.35;101447.22;6238200;28;20290;-74
2021/04/02 04:05:01;;;;;;;1.23;0.90;;;;;;;6.32;56.19;101445.19;6240801;28;20528;-73
2021/04/02 04:08:09;;;;;;;1.47;0.90;;;;;;;6.10;56.57;101431.34;6257995;28;20227;-73
2021/04/02 04:11:16;;;;;;;0.70;0.70;;;;;;;6.18;57.16;101442.16;6257608;28;20229;-72
2021/04/02 04:14:23;;;;;;;0.80;0.80;;;;;;;6.10;57.00;101423.22;6257995;28;20253;-72
2021/04/02 04:17:29;;;;;;;3.13;1.00;;;;;;;6.16;56.73;101438.75;6257159;28;20211;-71
2021/04/02 04:20:41;;;;;;;1.00;1.00;;;;;;;6.09;57.22;101431.50;6257596;28;20217;-72
2021/04/02 04:23:58;;;;;;;0.90;0.90;;;;;;;6.15;56.84;101431.69;6208675;28;20202;-72
2021/04/02 04:27:04;;;;;;;0.97;0.90;;;;;;;5.61;58.12;101417.03;6242210;28;20189;-72
2021/04/02 04:30:10;;;;;;;1.53;0.90;;;;;;;5.86;58.49;101423.28;6242030;28;20224;-71
2021/04/02 04:33:19;;;;;;;1.90;1.10;;;;;;;5.64;58.03;101372.53;6240910;28;20376;-72
2021/04/02 04:36:23;;;;;;;0.90;0.90;;;;;;;6.00;57.65;101433.41;6240942;28;20535;-72
2021/04/02 04:39:30;;;;;;;1.07;1.07;;;;;;;5.94;58.57;101412.44;6241949;28;20193;-72
2021/04/02 04:42:33;;;;;;;0.80;0.80;;;;;;;5.85;57.86;101418.88;6241793;28;20215;-72
2021/04/02 04:45:37;;;;;;;4.00;1.20;;;;;;;5.71;58.70;101424.97;6242113;28;20189;-72
2021/04/02 04:48:40;;;;;;;0.90;0.90;;;;;;;5.65;58.07;101417.50;6240567;28;20260;-72
2021/04/02 04:51:46;;;;;;;0.90;0.90;;;;;;;6.00;57.96;101416.31;6241840;28;20216;-73
2021/04/02 04:54:53;;;;;;;0.90;0.90;;;;;;;6.07;57.45;101418.16;6240440;28;20504;-72
2021/04/02 04:57:58;;;;;;;3.17;0.90;;;;;;;6.06;58.49;101421.88;6241388;28;20189;-73
2021/04/02 05:01:05;;;;;;;0.90;0.90;;;;;;;6.02;59.32;101431.38;6241356;28;20200;-71
2021/04/02 05:04:09;;;;;;;1.00;1.00;;;;;;;5.90;59.80;101416.50;6241240;28;20242;-72
2021/04/02 05:07:16;;;;;;;3.40;0.90;;;;;;;5.77;59.35;101421.56;6240208;28;20375;-73
2021/04/02 05:10:22;;;;;;;0.90;0.90;;;;;;;5.97;59.32;101406.66;6241109;28;20252;-72
2021/04/02 05:13:27;;;;;;;1.10;1.10;;;;;;;6.04;59.18;101410.38;6241278;28;20189;-72
2021/04/02 05:16:32;;;;;;;1.00;1.00;;;;;;;6.03;58.17;101389.72;6239947;28;20189;-72
2021/04/02 05:19:37;;;;;;;0.87;0.87;;;;;;;6.02;57.93;101404.28;6239705;28;20243;-72
2021/04/02 05:22:40;;;;;;;0.70;0.70;;;;;;;5.85;58.04;101389.09;6241120;28;20237;-71
2021/04/02 05:25:44;;;;;;;0.90;0.90;;;;;;;5.95;58.70;101413.28;6239795;28;20385;-72
2021/04/02 05:28:48;;;;;;;0.90;0.90;;;;;;;5.88;59.72;101407.69;6240931;28;20227;-72
2021/04/02 05:31:56;;;;;;;1.10;1.00;;;;;;;6.03;58.93;101400.56;6240646;28;20216;-71
2021/04/02 05:34:59;;;;;;;1.33;0.90;;;;;;;5.88;59.18;101401.44;6240821;28;20195;-72
2021/04/02 05:38:03;;;;;;;1.23;0.87;;;;;;;6.03;59.39;101395.16;6240451;28;20196;-71
2021/04/02 05:41:09;;;;;;;4.20;0.87;;;;;;;6.22;58.20;101399.28;6240875;28;20224;-72
2021/04/02 05:44:18;;;;;;;0.90;0.90;;;;;;;6.14;57.97;101386.63;6239319;28;20526;-73
2021/04/02 05:47:22;;;;;;;0.77;0.77;;;;;;;6.17;57.97;101397.13;6239330;28;20376;-72
2021/04/02 05:50:27;;;;;;;0.90;0.90;;;;;;;5.96;57.65;101350.78;6240247;28;20189;-71
2021/04/02 05:53:31;;;;;;;0.80;0.80;;;;;;;6.39;57.88;101389.25;6238943;28;20189;-72
2021/04/02 05:56:36;;;;;;;0.97;0.90;;;;;;;6.40;57.89;101391.75;6239126;28;20338;-71
2021/04/02 05:59:41;;;;;;;0.90;0.90;;;;;;;5.89;58.50;101393.13;6240353;28;20189;-72
2021/04/02 06:02:46;;;;;;;1.27;1.07;;;;;;;6.10;59.23;101389.88;6239014;28;20480;-72
2021/04/02 06:05:49;;;;;;;0.90;0.90;;;;;;;6.37;57.28;101380.44;6239799;28;20291;-71
2021/04/02 06:08:53;;;;;;;1.17;1.00;;;;;;;6.16;56.50;101335.81;6240092;28;20221;-73
2021/04/02 06:11:57;;;;;;;16.07;2.03;;;;;;;6.59;56.27;101379.66;6238454;28;20209;-72
2021/04/02 06:15:00;;;;;;;1.90;1.10;;;;;;;6.53;56.72;101392.03;6239831;28;20227;-73
2021/04/02 06:18:07;;;;;;;4.53;1.03;;;;;;;6.56;56.31;101401.69;6239434;28;20185;-73
2021/04/02 06:21:10;;;;;;;1.00;1.00;;;;;;;6.57;55.76;101382.56;6239846;28;20194;-72
2021/04/02 06:24:36;;;;;;;2.27;0.90;;;;;;;6.63;56.67;101387.25;6237964;28;20186;-73
2021/04/02 06:27:40;;;;;;;0.73;0.73;;;;;;;6.42;56.80;101394.31;6239394;28;20189;-72
2021/04/02 06:30:44;;;;;;;4.70;0.90;;;;;;;6.55;56.05;101389.19;6238811;28;20311;-72
2021/04/02 06:33:51;;;;;;;1.03;1.03;;;;;;;6.47;55.87;101364.81;6239274;28;20203;-72
2021/04/02 06:37:00;;;;;;;2.13;1.13;;;;;;;6.75;55.41;101388.53;6238237;28;20211;-72
2021/04/02 06:40:14;;;;;;;5.23;0.97;;;;;;;6.75;55.67;101390.41;6239262;28;20193;-73
2021/04/02 06:43:19;;;;;;;1.00;1.00;;;;;;;6.64;56.00;101398.94;6239306;28;20239;-72
2021/04/02 06:46:24;;;;;;;2.33;1.10;;;;;;;6.84;55.21;101394.75;6238954;28;20193;-73
2021/04/02 06:49:28;;;;;;;1.37;1.37;;;;;;;6.74;54.90;101399.56;6239276;28;20186;-73
2021/04/02 06:52:31;;;;;;;1.10;1.10;;;;;;;6.67;54.45;101393.16;6238698;28;20408;-72
2021/04/02 06:55:38;;;;;;;0.97;0.97;;;;;;;6.73;54.58;101398.72;6238482;28;20219;-73
2021/04/02 06:58:43;;;;;;;1.13;1.10;;;;;;;6.79;54.36;101394.44;6237419;28;20221;-72
2021/04/02 07:01:49;;;;;;;2.03;1.00;;;;;;;6.67;54.93;101398.59;6237491;28;20193;-72
2021/04/02 07:04:54;;;;;;;4.50;1.10;;;;;;;6.41;55.30;101376.34;6236883;28;20264;-71
2021/04/02 07:08:01;;;;;;;1.13;1.13;;;;;;;6.32;54.93;101393.69;6237142;28;20476;-70
2021/04/02 07:11:05;;;;;;;1.10;1.10;;;;;;;6.20;55.77;101391.34;6238056;28;20207;-73
2021/04/02 07:14:10;;;;;;;1.13;0.90;;;;;;;6.51;55.16;101394.09;6238376;28;20188;-72
2021/04/02 07:17:14;;;;;;;1.00;1.00;;;;;;;6.59;55.15;101390.50;6238284;28;20192;-72
2021/04/02 07:20:17;;;;;;;0.90;0.90;;;;;;;6.80;54.43;101388.00;6237214;28;20212;-73
2021/04/02 07:23:21;;;;;;;1.00;0.97;;;;;;;6.82;53.84;101385.94;6237304;28;20200;-72
2021/04/02 07:26:25;;;;;;;2.17;1.00;;;;;;;6.53;53.51;101391.19;6237928;28;20188;-72
2021/04/02 07:29:29;;;;;;;3.43;1.07;;;;;;;6.49;54.52;101385.31;6236835;28;20208;-71
2021/04/02 07:32:35;;;;;;;1.13;1.10;;;;;;;6.49;54.94;101395.28;6237758;28;20291;-71
2021/04/02 07:35:40;;;;;;;0.97;0.97;;;;;;;6.67;54.02;101398.59;6237063;28;20256;-72
2021/04/02 07:38:48;;;;;;;1.37;0.90;;;;;;;6.83;54.19;101398.50;6237617;28;20188;-73
2021/04/02 07:41:52;;;;;;;2.93;1.00;;;;;;;6.72;54.07;101397.03;6238144;28;20308;-72
2021/04/02 07:44:57;;;;;;;3.80;1.10;;;;;;;6.47;54.24;101389.22;6237985;28;20260;-71
2021/04/02 07:48:12;;;;;;;2.00;1.30;;;;;;;6.74;54.20;101386.84;6236661;28;20414;-73
2021/04/02 07:51:15;;;;;;;2.93;1.00;;;;;;;6.85;53.91;101386.44;6236911;28;20385;-72
2021/04/02 07:54:37;;;;;;;1.03;1.03;;;;;;;6.68;53.84;101389.41;6239739;28;20213;-73
2021/04/02 07:57:54;;;;;;;0.90;0.90;;;;;;;6.59;53.80;101379.66;6241009;28;20185;-72
2021/04/02 08:01:01;;;;;;;3.40;1.10;;;;;;;6.70;53.92;101368.41;6238916;28;20220;-73
2021/04/02 08:04:05;;;;;;;1.10;1.00;;;;;;;6.71;53.64;101383.63;6237238;28;20208;-72
2021/04/02 08:07:16;;;;;;;2.70;1.20;;;;;;;6.81;53.85;101373.41;6237408;28;20189;-72
2021/04/02 08:10:20;;;;;;;1.50;1.00;;;;;;;6.76;53.92;101375.81;6235369;28;20413;-72
2021/04/02 08:13:25;;;;;;;1.53;1.43;;;;;;;6.80;53.62;101355.47;6237152;28;20221;-72
2021/04/02 08:16:48;;;;;;;1.50;1.00;;;;;;;7.08;53.04;101359.31;6237744;28;20220;-73
2021/04/02 08:20:00;;;;;;;2.37;0.97;;;;;;;7.08;53.04;101370.16;6237587;28;20186;-72
2021/04/02 08:23:05;;;;;;;1.00;1.00;;;;;;;6.97;53.18;101356.16;6236253;28;20197;-74
2021/04/02 08:26:08;;;;;;;;;;;;;;;6.79;53.16;101361.91;6237718;28;20276;-72
2021/04/02 08:29:12;;;;;;;;;;;;;;;6.92;52.92;101343.16;6237853;28;19922;-74
2021/04/02 08:32:16;;;;;;;3.00;0.90;;;;;;;7.04;52.08;101338.97;6236112;28;20339;-72
2021/04/02 08:35:20;;;;;;;;;;;;;;;7.15;52.38;101333.13;6237638;28;20072;-72
2021/04/02 08:38:23;;;;;;;;;;;;;;;7.14;52.26;101339.56;6237238;28;19924;-73
2021/04/02 08:41:29;;;;;;;;;;;;;;;7.25;51.74;101332.88;6237202;28;19980;-72
2021/04/02 08:44:35;;;;;;;1.97;1.10;;;;;;;7.07;51.57;101329.63;6237233;28;20261;-72
2021/04/02 08:47:40;;;;;;;1.10;1.00;;;;;;;7.20;52.33;101329.88;6238252;28;20220;-72
2021/04/02 08:50:47;;;;;;;1.40;1.00;;;;;;;7.41;51.65;101339.00;6241691;28;20217;-72
2021/04/02 08:53:50;;;;;;;1.00;1.00;;;;;;;7.15;51.75;101295.13;6241085;28;20291;-72
2021/04/02 08:56:53;;;;;;;1.00;1.00;;;;;;;7.61;51.60;101333.88;6241478;28;20252;-71
2021/04/02 08:59:59;;;;;;;5.17;0.90;;;;;;;7.50;50.11;101327.03;6240102;28;20389;-73
2021/04/02 09:03:05;;;;;;;6.70;1.30;;;;;;;7.62;48.02;101340.16;6240794;28;20205;-72
2021/04/02 09:06:10;;;;;;;3.77;1.20;;;;;;;7.38;47.46;101344.78;6240227;28;20237;-72
2021/04/02 09:09:16;;;;;;;6.90;1.30;;;;;;;7.46;47.03;101336.59;6240961;28;20351;-72
2021/04/02 09:12:21;;;;;;;1.60;0.90;;;;;;;7.31;47.10;101324.00;6240753;28;20241;-73
2021/04/02 09:15:29;;;;;;;2.23;1.20;;;;;;;7.55;47.31;101345.47;6240514;28;20217;-73
2021/04/02 09:18:33;;;;;;;4.50;1.20;;;;;;;7.66;46.71;101341.47;6240762;28;20185;-72
2021/04/02 09:21:36;;;;;;;5.37;1.23;;;;;;;7.59;46.83;101341.38;6239563;28;20433;-72
2021/04/02 09:24:41;;;;;;;3.33;1.23;;;;;;;7.74;46.36;101330.50;6240601;28;20231;-71
2021/04/02 09:27:45;;;;;;;6.33;1.10;;;;;;;7.74;46.92;101339.50;6239443;28;20468;-72
2021/04/02 09:30:48;;;;;;;5.03;1.33;;;;;;;7.77;46.42;101343.72;6240045;28;20277;-71
2021/04/02 09:33:53;;;;;;;3.20;1.10;;;;;;;7.80;46.25;101344.22;6239117;28;20235;-71
2021/04/02 09:36:59;;;;;;;1.63;1.30;;;;;;;7.70;47.03;101343.63;6240240;28;20193;-72
2021/04/02 09:40:06;;;;;;;2.92;1.00;;;;;;;7.86;46.56;101329.00;6240691;28;20193;-71
2021/04/02 09:43:12;;;;;;;;;;;;;;;7.92;47.22;101330.97;6240844;28;20189;-72
2021/04/02 09:46:27;;;;;;;2.15;1.98;;;;;;;7.67;46.15;101343.16;6240535;28;19921;-72
2021/04/02 09:49:33;;;;;;;2.55;1.20;;;;;;;7.71;46.30;101330.88;6240044;28;20249;-73
2021/04/02 09:52:38;;;;;;;3.63;2.27;;;;;;;7.80;46.56;101321.63;6238878;28;20213;-72
2021/04/02 09:55:41;;;;;;;7.65;2.35;;;;;;;7.92;47.02;101328.28;6240058;28;20193;-72
2021/04/02 09:58:45;;;;;;;1.50;1.50;;;;;;;7.94;46.39;101318.03;6238010;28;20240;-73
2021/04/02 10:01:49;;;;;;;7.32;1.60;;;;;;;7.99;46.33;101299.31;6239697;28;20186;-73
2021/04/02 10:04:53;;;;;;;;;;;;;;;8.22;45.88;101313.59;6239329;28;20236;-72
2021/04/02 10:07:56;;;;;;;;;;;;;;;8.29;45.27;101317.31;6239505;28;19925;-72
2021/04/02 10:10:59;;;;;;;4.75;1.67;;;;;;;8.35;44.84;101327.41;6239946;28;20211;-72
2021/04/02 10:14:03;;;;;;;1.10;1.10;;;;;;;8.47;44.78;101317.75;6238554;28;20223;-72
2021/04/02 10:17:10;;;;;;;3.08;1.10;;;;;;;8.46;44.16;101312.47;6238118;28;20472;-72
2021/04/02 10:20:16;;;;;;;1.48;1.10;;;;;;;8.50;43.49;101302.91;6238296;28;20193;-72
2021/04/02 10:23:20;;;;;;;1.38;0.98;;;;;;;8.50;43.58;101330.94;6239440;28;20193;-73
2021/04/02 10:26:23;;;;;;;;;;;;;;;8.54;43.75;101332.25;6239785;28;20096;-72
2021/04/02 10:29:26;;;;;;;;;;;;;;;8.67;43.88;101310.63;6239854;28;19928;-72
2021/04/02 10:32:29;;;;;;;;;;;;;;;8.61;43.72;101322.28;6239656;28;20005;-72
2021/04/02 10:35:35;;;;;;;;;;;;;;;8.66;44.30;101314.38;6239689;28;19986;-72
2021/04/02 10:38:38;;;;;;;;;;;;;;;8.64;44.11;101316.47;6238909;28;20210;-73
2021/04/02 10:41:41;;;;;;;;;;;;;;;8.66;44.45;101314.38;6239516;28;19964;-71
2021/04/02 10:44:45;;;;;;;;;;;;;;;8.65;43.28;101317.31;6239318;28;19917;-72
2021/04/02 10:47:47;;;;;;;;;;;;;;;8.60;44.17;101326.03;6239313;28;19952;-72
2021/04/02 10:50:58;;;;;;;;;;;;;;;8.76;43.80;101320.34;6239559;28;19924;-72
2021/04/02 10:54:01;;;;;;;;;;;;;;;8.90;44.46;101337.66;6239293;28;19917;-73
2021/04/02 10:57:05;;;;;;;;;;;;;;;8.77;44.25;101316.59;6238062;28;19963;-73
2021/04/02 11:00:11;;;;;;;;;;;;;;;8.90;44.22;101306.88;6238996;28;19996;-73
2021/04/02 11:03:19;;;;;;;;;;;;;;;8.93;43.75;101314.66;6239048;28;19921;-73
2021/04/02 11:06:23;;;;;;;;;;;;;;;8.95;44.47;101302.53;6238292;28;20203;-73
2021/04/02 11:09:26;;;;;;;3.97;0.90;;;;;;;9.18;44.10;101310.47;6238877;28;19980;-73
2021/04/02 11:12:29;;;;;;;;;;;;;;;9.13;43.98;101312.94;6238642;28;20233;-73
2021/04/02 11:15:32;;;;;;;;;;;;;;;9.09;43.36;101308.94;6237873;28;20017;-73
2021/04/02 11:18:35;;;;;;;;;;;;;;;8.99;44.06;101308.44;6239128;28;19917;-72
2021/04/02 11:21:39;;;;;;;;;;;;;;;9.03;43.03;101326.06;6238778;28;19956;-74
2021/04/02 11:24:42;;;;;;;;;;;;;;;9.22;43.00;101309.03;6238620;28;20203;-72
2021/04/02 11:27:45;;;;;;;1.00;1.00;;;;;;;9.14;42.03;101295.59;6238002;28;20565;-72
2021/04/02 11:30:48;;;;;;;;;;;;;;;9.04;43.36;101305.97;6238603;28;20206;-72
2021/04/02 11:33:51;;;;;;;;;;;;;;;9.14;42.42;101301.03;6238399;28;19955;-72
2021/04/02 11:36:55;;;;;;;;;;;;;;;9.07;42.44;101308.28;6237410;28;20113;-72
2021/04/02 11:39:58;;;;;;;;;;;;;;;8.91;42.89;101305.84;6236622;28;19917;-72
2021/04/02 11:43:00;;;;;;;;;;;;;;;9.04;42.90;101311.41;6237257;28;20163;-72
2021/04/02 11:46:04;;;;;;;;;;;;;;;9.13;42.21;101315.69;6237670;28;19917;-71
2021/04/02 11:49:07;;;;;;;;;;;;;;;9.22;42.26;101303.59;6238135;28;19960;-73
2021/04/02 11:52:13;;;;;;;1.10;1.00;;;;;;;9.18;42.01;101305.03;6237191;28;20112;-73
2021/04/02 11:55:17;;;;;;;2.70;1.10;;;;;;;9.00;42.06;101312.81;6237922;28;20292;-72
2021/04/02 11:58:25;;;;;;;;;;;;;;;9.23;42.41;101310.72;6237153;28;19917;-72
2021/04/02 12:01:28;;;;;;;;;;;;;;;9.36;42.44;101299.94;6237160;28;19926;-72
2021/04/02 12:04:31;;;;;;;;;;;;;;;9.52;42.48;101310.56;6237288;28;19917;-74
2021/04/02 12:07:36;;;;;;;1.27;1.15;;;;;;;9.49;42.02;101286.44;6236645;28;20482;-72
2021/04/02 12:10:39;;;;;;;;;;;;;;;9.41;41.64;101309.22;6238153;28;20077;-71
2021/04/02 12:13:43;;;;;;;2.40;1.40;;;;;;;9.42;41.75;101304.63;6237379;28;20243;-72
2021/04/02 12:16:46;;;;;;;1.48;1.20;;;;;;;9.47;42.22;101306.75;6237860;28;20185;-72
2021/04/02 12:19:50;;;;;;;1.13;1.05;;;;;;;9.59;42.33;101295.09;6237752;28;20273;-73
2021/04/02 12:22:54;;;;;;;;;;;;;;;9.28;42.32;101308.25;6239956;28;20067;-73
2021/04/02 12:25:57;;;;;;;;;;;;;;;9.43;42.44;101296.22;6257133;28;20100;-73
2021/04/02 12:29:01;;;;;;;;;;;;;;;9.59;42.69;101300.53;6242606;28;19955;-71
2021/04/02 12:32:05;;;;;;;;;;;;;;;9.70;42.12;101302.72;6242658;28;19917;-72
2021/04/02 12:35:10;;;;;;;;;;;;;;;9.66;41.50;101306.88;6242806;28;19987;-72
2021/04/02 12:38:15;;;;;;;;;;;;;;;9.46;41.73;101300.44;6242819;28;19996;-72
2021/04/02 12:41:18;;;;;;;;;;;;;;;9.56;42.74;101306.38;6242324;28;19917;-72
2021/04/02 12:44:21;;;;;;;;;;;;;;;9.53;42.15;101312.22;6242644;28;20177;-72
2021/04/02 12:47:24;;;;;;;;;;;;;;;9.32;42.01;101315.00;6241243;28;19917;-72
2021/04/02 12:50:27;;;;;;;;;;;;;;;9.34;41.79;101315.66;6240845;28;20089;-72
2021/04/02 12:53:31;;;;;;;;;;;;;;;9.01;43.15;101320.81;6240819;28;20256;-72
2021/04/02 12:56:37;;;;;;;;;;;;;;;9.15;42.47;101321.75;6241999;28;19981;-72
2021/04/02 12:59:40;;;;;;;;;;;;;;;9.15;42.69;101319.03;6240763;28;19976;-71
2021/04/02 13:02:43;;;;;;;;;;;;;;;9.18;43.21;101340.44;6241453;28;19952;-72
2021/04/02 13:05:47;;;;;;;;;;;;;;;9.33;44.22;101343.91;6241311;28;19953;-72
2021/04/02 13:08:51;;;;;;;;;;;;;;;9.18;45.14;101344.00;6240529;28;20113;-72
2021/04/02 13:11:57;;;;;;;;;;;;;;;8.93;48.03;101360.91;6240675;28;19925;-72
2021/04/02 13:14:59;;;;;;;;;;;;;;;8.96;47.60;101352.38;6240345;28;19917;-72
2021/04/02 13:18:05;;;;;;;;;;;;;;;9.01;47.51;101352.63;6240384;28;19917;-72
2021/04/02 13:21:08;;;;;;;;;;;;;;;8.99;47.77;101352.00;6272365;28;19989;-72
2021/04/02 13:24:13;;;;;;;;;;;;;;;9.05;47.71;101341.16;6240293;28;20008;-72
2021/04/02 13:27:15;;;;;;;;;;;;;;;9.00;47.79;101342.75;6241005;28;19939;-72
2021/04/02 13:30:19;;;;;;;;;;;;;;;9.10;47.76;101356.88;6241158;28;19996;-72
2021/04/02 13:33:22;;;;;;;;;;;;;;;9.15;47.41;101351.69;6239870;28;19984;-72
2021/04/02 13:36:26;;;;;;;;;;;;;;;9.01;47.62;101367.09;6241044;28;19921;-72
2021/04/02 13:39:30;;;;;;;;;;;;;;;9.11;47.16;101350.41;6239920;28;20268;-72
2021/04/02 13:42:33;;;;;;;;;;;;;;;9.17;47.14;101352.34;6240731;28;19955;-71
2021/04/02 13:45:37;;;;;;;;;;;;;;;9.18;46.88;101362.22;6239738;28;19917;-71
2021/04/02 13:48:40;;;;;;;;;;;;;;;8.99;48.02;101369.13;6240625;28;19917;-72
2021/04/02 13:51:43;;;;;;;;;;;;;;;9.01;48.35;101388.00;6240600;28;19955;-71
2021/04/02 13:54:47;;;;;;;;;;;;;;;8.86;51.67;101395.38;6240624;28;19917;-72
2021/04/02 13:57:50;;;;;;;;;;;;;;;8.77;51.44;101387.34;6240579;28;19917;-73
2021/04/02 14:00:53;;;;;;;;;;;;;;;8.65;53.09;101388.84;6239656;28;20205;-72
2021/04/02 14:03:55;;;;;;;;;;;;;;;8.60;50.67;101395.91;6240098;28;20151;-73
2021/04/02 14:06:58;;;;;;;;;;;;;;;8.55;52.49;101393.75;6264565;28;19917;-72
2021/04/02 14:10:03;;;;;;;;;;;;;;;8.63;50.53;101401.81;6270796;28;19998;-72
2021/04/02 14:13:10;;;;;;;;;;;;;;;8.57;50.96;101408.03;6271063;28;20062;-73
2021/04/02 14:16:14;;;;;;;;;;;;;;;8.45;52.45;101414.97;6271741;28;19928;-73
2021/04/02 14:19:16;;;;;;;;;;;;;;;8.52;52.45;101410.47;6268502;28;19917;-73
2021/04/02 14:22:19;;;;;;;;;;;;;;;8.41;53.98;101412.81;6264836;28;19924;-73
2021/04/02 14:25:26;;;;;;;;;;;;;;;8.41;53.83;101413.66;6264851;28;19997;-72
2021/04/02 14:28:29;;;;;;;;;;;;;;;8.45;54.01;101406.81;6263325;28;20160;-73
2021/04/02 14:31:33;;;;;;;1.30;1.20;;;;;;;8.67;53.70;101403.13;6263354;28;20273;-73
2021/04/02 14:34:36;;;;;;;3.53;1.38;;;;;;;8.48;54.23;101403.72;6263775;28;20216;-73
2021/04/02 14:37:40;;;;;;;6.40;0.95;;;;;;;8.44;54.21;101402.41;6263978;28;20217;-73
2021/04/02 14:40:45;;;;;;;5.18;1.20;;;;;;;8.50;54.63;101412.50;6262755;28;20522;-73
2021/04/02 14:43:49;;;;;;;1.85;1.33;;;;;;;8.46;54.25;101419.38;6263497;28;20203;-73
2021/04/02 14:46:52;;;;;;;8.40;1.10;;;;;;;8.49;53.66;101405.41;6261959;28;20185;-72
2021/04/02 14:49:55;;;;;;;2.58;1.80;;;;;;;8.42;53.08;101412.63;6263526;28;20231;-72
2021/04/02 14:52:58;;;;;;;1.55;1.42;;;;;;;8.30;53.41;101418.72;6262304;28;20239;-72
2021/04/02 14:56:03;;;;;;;1.08;1.08;;;;;;;8.30;53.57;101392.38;6262227;28;20442;-72
2021/04/02 14:59:10;;;;;;;2.80;1.10;;;;;;;8.40;53.17;101405.69;6263472;28;20216;-72